sensor_id;sensor_type;location;lat;lon;timestamp;P1;durP1;ratioP1;P2;durP2;ratioP2
35558;SDS011;21661;50.794;-1.066;2022-11-15T00:00:43;15.80;;;2.28;;
35558;SDS011;21661;50.794;-1.066;2022-11-15T00:03:09;9.27;;;1.52;;
35558;SDS011;21661;50.794;-1.066;2022-11-15T00:05:35;10.43;;;1.77;;
35558;SDS011;21661;50.794;-1.066;2022-11-15T00:08:01;14.85;;;1.50;;
35558;SDS011;21661;50.794;-1.066;2022-11-15T00:10:26;10.30;;;1.63;;
35558;SDS011;21661;50.794;-1.066;2022-11-15T00:12:52;12.75;;;1.85;;
35558;SDS011;21661;50.794;-1.066;2022-11-15T00:15:18;10.30;;;2.05;;
35558;SDS011;21661;50.794;-1.066;2022-11-15T00:17:43;11.52;;;1.58;;
35558;SDS011;21661;50.794;-1.066;2022-11-15T00:20:09;7.68;;;1.90;;
35558;SDS011;21661;50.794;-1.066;2022-11-15T00:22:35;10.57;;;1.50;;
35558;SDS011;21661;50.794;-1.066;2022-11-15T00:25:00;11.50;;;1.55;;
35558;SDS011;21661;50.794;-1.066;2022-11-15T00:27:26;7.63;;;1.50;;
35558;SDS011;21661;50.794;-1.066;2022-11-15T00:29:52;11.00;;;1.35;;
35558;SDS011;21661;50.794;-1.066;2022-11-15T00:32:18;11.70;;;1.60;;
35558;SDS011;21661;50.794;-1.066;2022-11-15T00:34:43;12.30;;;2.03;;
35558;SDS011;21661;50.794;-1.066;2022-11-15T00:37:09;9.52;;;1.40;;
35558;SDS011;21661;50.794;-1.066;2022-11-15T00:39:34;11.95;;;1.67;;
35558;SDS011;21661;50.794;-1.066;2022-11-15T00:42:00;11.80;;;1.55;;
35558;SDS011;21661;50.794;-1.066;2022-11-15T00:44:26;12.52;;;1.67;;
35558;SDS011;21661;50.794;-1.066;2022-11-15T00:46:51;9.07;;;2.05;;
35558;SDS011;21661;50.794;-1.066;2022-11-15T00:49:17;14.18;;;1.83;;
35558;SDS011;21661;50.794;-1.066;2022-11-15T00:51:43;14.55;;;3.03;;
35558;SDS011;21661;50.794;-1.066;2022-11-15T00:54:08;16.00;;;2.17;;
35558;SDS011;21661;50.794;-1.066;2022-11-15T00:56:34;12.35;;;2.00;;
35558;SDS011;21661;50.794;-1.066;2022-11-15T00:58:59;13.48;;;2.22;;
35558;SDS011;21661;50.794;-1.066;2022-11-15T01:01:25;12.45;;;2.17;;
35558;SDS011;21661;50.794;-1.066;2022-11-15T01:03:50;11.10;;;1.90;;
35558;SDS011;21661;50.794;-1.066;2022-11-15T01:06:16;12.68;;;1.92;;
35558;SDS011;21661;50.794;-1.066;2022-11-15T01:08:41;13.65;;;3.03;;
35558;SDS011;21661;50.794;-1.066;2022-11-15T01:11:09;11.25;;;2.15;;
35558;SDS011;21661;50.794;-1.066;2022-11-15T01:13:36;13.65;;;2.17;;
35558;SDS011;21661;50.794;-1.066;2022-11-15T01:16:13;12.45;;;1.98;;
35558;SDS011;21661;50.794;-1.066;2022-11-15T01:18:42;14.38;;;2.28;;
35558;SDS011;21661;50.794;-1.066;2022-11-15T01:21:13;16.52;;;1.85;;
35558;SDS011;21661;50.794;-1.066;2022-11-15T01:23:40;15.90;;;2.97;;
35558;SDS011;21661;50.794;-1.066;2022-11-15T01:26:07;16.55;;;2.33;;
35558;SDS011;21661;50.794;-1.066;2022-11-15T01:28:36;20.35;;;2.50;;
35558;SDS011;21661;50.794;-1.066;2022-11-15T01:31:03;16.67;;;2.35;;
35558;SDS011;21661;50.794;-1.066;2022-11-15T01:33:30;15.05;;;2.40;;
35558;SDS011;21661;50.794;-1.066;2022-11-15T01:36:02;16.50;;;2.95;;
35558;SDS011;21661;50.794;-1.066;2022-11-15T01:38:30;17.00;;;3.53;;
35558;SDS011;21661;50.794;-1.066;2022-11-15T01:40:55;12.57;;;2.15;;
35558;SDS011;21661;50.794;-1.066;2022-11-15T01:45:51;16.52;;;2.40;;
35558;SDS011;21661;50.794;-1.066;2022-11-15T01:48:21;12.52;;;2.60;;
35558;SDS011;21661;50.794;-1.066;2022-11-15T01:50:50;14.43;;;2.65;;
35558;SDS011;21661;50.794;-1.066;2022-11-15T01:53:16;21.38;;;2.33;;
35558;SDS011;21661;50.794;-1.066;2022-11-15T01:55:44;17.25;;;2.13;;
35558;SDS011;21661;50.794;-1.066;2022-11-15T01:58:09;14.77;;;2.45;;
35558;SDS011;21661;50.794;-1.066;2022-11-15T02:00:35;13.68;;;2.50;;
35558;SDS011;21661;50.794;-1.066;2022-11-15T02:03:01;17.23;;;2.10;;
35558;SDS011;21661;50.794;-1.066;2022-11-15T02:05:27;12.52;;;2.78;;
35558;SDS011;21661;50.794;-1.066;2022-11-15T02:07:55;13.13;;;2.13;;
35558;SDS011;21661;50.794;-1.066;2022-11-15T02:10:21;9.63;;;2.60;;
35558;SDS011;21661;50.794;-1.066;2022-11-15T02:12:49;17.67;;;3.20;;
35558;SDS011;21661;50.794;-1.066;2022-11-15T02:15:15;14.70;;;2.17;;
35558;SDS011;21661;50.794;-1.066;2022-11-15T02:23:24;15.37;;;2.33;;
35558;SDS011;21661;50.794;-1.066;2022-11-15T02:39:54;14.60;;;2.30;;
35558;SDS011;21661;50.794;-1.066;2022-11-15T02:42:29;16.98;;;2.08;;
35558;SDS011;21661;50.794;-1.066;2022-11-15T02:45:23;14.88;;;2.42;;
35558;SDS011;21661;50.794;-1.066;2022-11-15T02:47:54;19.27;;;2.53;;
35558;SDS011;21661;50.794;-1.066;2022-11-15T02:50:25;15.35;;;1.98;;
35558;SDS011;21661;50.794;-1.066;2022-11-15T02:52:53;15.63;;;2.95;;
35558;SDS011;21661;50.794;-1.066;2022-11-15T02:55:30;13.98;;;1.88;;
35558;SDS011;21661;50.794;-1.066;2022-11-15T03:00:49;23.33;;;3.08;;
35558;SDS011;21661;50.794;-1.066;2022-11-15T03:04:01;12.27;;;2.08;;
35558;SDS011;21661;50.794;-1.066;2022-11-15T03:06:42;14.77;;;2.15;;
35558;SDS011;21661;50.794;-1.066;2022-11-15T03:09:28;16.15;;;2.75;;
35558;SDS011;21661;50.794;-1.066;2022-11-15T03:12:03;14.98;;;2.28;;
35558;SDS011;21661;50.794;-1.066;2022-11-15T03:14:37;17.45;;;3.55;;
35558;SDS011;21661;50.794;-1.066;2022-11-15T03:19:45;11.63;;;2.30;;
35558;SDS011;21661;50.794;-1.066;2022-11-15T03:24:43;17.17;;;2.78;;
35558;SDS011;21661;50.794;-1.066;2022-11-15T03:27:12;19.30;;;2.50;;
35558;SDS011;21661;50.794;-1.066;2022-11-15T03:29:42;11.73;;;2.22;;
35558;SDS011;21661;50.794;-1.066;2022-11-15T03:32:14;17.30;;;2.50;;
35558;SDS011;21661;50.794;-1.066;2022-11-15T03:34:47;16.30;;;2.75;;
35558;SDS011;21661;50.794;-1.066;2022-11-15T03:37:16;20.73;;;2.70;;
35558;SDS011;21661;50.794;-1.066;2022-11-15T03:39:45;22.88;;;3.20;;
35558;SDS011;21661;50.794;-1.066;2022-11-15T03:47:34;21.60;;;3.33;;
35558;SDS011;21661;50.794;-1.066;2022-11-15T03:50:07;13.88;;;2.55;;
35558;SDS011;21661;50.794;-1.066;2022-11-15T03:52:38;14.13;;;2.03;;
35558;SDS011;21661;50.794;-1.066;2022-11-15T03:55:06;17.20;;;2.30;;
35558;SDS011;21661;50.794;-1.066;2022-11-15T03:57:35;20.63;;;2.40;;
35558;SDS011;21661;50.794;-1.066;2022-11-15T04:00:00;21.02;;;3.53;;
35558;SDS011;21661;50.794;-1.066;2022-11-15T04:02:26;16.73;;;2.67;;
35558;SDS011;21661;50.794;-1.066;2022-11-15T04:04:53;16.98;;;3.47;;
35558;SDS011;21661;50.794;-1.066;2022-11-15T04:07:18;17.33;;;2.63;;
35558;SDS011;21661;50.794;-1.066;2022-11-15T04:09:44;17.45;;;2.90;;
35558;SDS011;21661;50.794;-1.066;2022-11-15T04:12:28;19.05;;;4.13;;
35558;SDS011;21661;50.794;-1.066;2022-11-15T04:17:36;20.63;;;3.30;;
35558;SDS011;21661;50.794;-1.066;2022-11-15T04:20:09;16.85;;;2.38;;
35558;SDS011;21661;50.794;-1.066;2022-11-15T04:22:54;21.80;;;3.35;;
35558;SDS011;21661;50.794;-1.066;2022-11-15T04:25:40;23.23;;;3.38;;
35558;SDS011;21661;50.794;-1.066;2022-11-15T04:28:06;23.23;;;4.90;;
35558;SDS011;21661;50.794;-1.066;2022-11-15T04:30:31;21.98;;;2.90;;
35558;SDS011;21661;50.794;-1.066;2022-11-15T04:32:57;18.35;;;3.85;;
35558;SDS011;21661;50.794;-1.066;2022-11-15T04:35:23;29.38;;;3.42;;
35558;SDS011;21661;50.794;-1.066;2022-11-15T04:37:48;25.30;;;4.00;;
35558;SDS011;21661;50.794;-1.066;2022-11-15T04:40:14;24.95;;;4.60;;
35558;SDS011;21661;50.794;-1.066;2022-11-15T04:42:40;22.50;;;3.10;;
35558;SDS011;21661;50.794;-1.066;2022-11-15T04:45:07;20.38;;;3.05;;
35558;SDS011;21661;50.794;-1.066;2022-11-15T04:47:33;17.20;;;3.67;;
35558;SDS011;21661;50.794;-1.066;2022-11-15T04:49:59;25.90;;;3.78;;
35558;SDS011;21661;50.794;-1.066;2022-11-15T04:52:25;15.80;;;2.42;;
35558;SDS011;21661;50.794;-1.066;2022-11-15T04:54:50;25.20;;;4.15;;
35558;SDS011;21661;50.794;-1.066;2022-11-15T04:57:16;29.88;;;3.50;;
35558;SDS011;21661;50.794;-1.066;2022-11-15T04:59:42;27.98;;;3.70;;
35558;SDS011;21661;50.794;-1.066;2022-11-15T05:02:07;29.75;;;4.57;;
35558;SDS011;21661;50.794;-1.066;2022-11-15T05:04:33;29.77;;;3.95;;
35558;SDS011;21661;50.794;-1.066;2022-11-15T05:06:58;17.63;;;3.50;;
35558;SDS011;21661;50.794;-1.066;2022-11-15T05:09:24;24.20;;;4.30;;
35558;SDS011;21661;50.794;-1.066;2022-11-15T05:11:49;27.30;;;4.60;;
35558;SDS011;21661;50.794;-1.066;2022-11-15T05:14:15;24.95;;;3.83;;
35558;SDS011;21661;50.794;-1.066;2022-11-15T05:16:41;32.03;;;4.00;;
35558;SDS011;21661;50.794;-1.066;2022-11-15T05:19:07;22.42;;;4.13;;
35558;SDS011;21661;50.794;-1.066;2022-11-15T05:21:33;36.92;;;4.68;;
35558;SDS011;21661;50.794;-1.066;2022-11-15T05:23:59;27.98;;;4.78;;
35558;SDS011;21661;50.794;-1.066;2022-11-15T05:26:25;36.72;;;4.35;;
35558;SDS011;21661;50.794;-1.066;2022-11-15T05:28:52;30.23;;;4.38;;
35558;SDS011;21661;50.794;-1.066;2022-11-15T05:31:21;32.78;;;4.75;;
35558;SDS011;21661;50.794;-1.066;2022-11-15T05:33:48;28.55;;;3.95;;
35558;SDS011;21661;50.794;-1.066;2022-11-15T05:36:24;33.90;;;4.40;;
35558;SDS011;21661;50.794;-1.066;2022-11-15T05:38:57;39.10;;;6.85;;
35558;SDS011;21661;50.794;-1.066;2022-11-15T05:41:26;36.58;;;4.75;;
35558;SDS011;21661;50.794;-1.066;2022-11-15T05:44:07;38.05;;;4.55;;
35558;SDS011;21661;50.794;-1.066;2022-11-15T05:46:35;35.17;;;5.88;;
35558;SDS011;21661;50.794;-1.066;2022-11-15T05:49:04;30.42;;;4.57;;
35558;SDS011;21661;50.794;-1.066;2022-11-15T05:51:32;32.60;;;4.10;;
35558;SDS011;21661;50.794;-1.066;2022-11-15T05:53:58;30.23;;;4.35;;
35558;SDS011;21661;50.794;-1.066;2022-11-15T05:56:25;27.05;;;3.92;;
35558;SDS011;21661;50.794;-1.066;2022-11-15T05:58:52;26.98;;;3.80;;
35558;SDS011;21661;50.794;-1.066;2022-11-15T06:01:20;37.83;;;4.75;;
35558;SDS011;21661;50.794;-1.066;2022-11-15T06:03:46;37.58;;;4.57;;
35558;SDS011;21661;50.794;-1.066;2022-11-15T06:06:11;33.40;;;4.55;;
35558;SDS011;21661;50.794;-1.066;2022-11-15T06:08:37;29.98;;;4.38;;
35558;SDS011;21661;50.794;-1.066;2022-11-15T06:11:03;28.20;;;5.43;;
35558;SDS011;21661;50.794;-1.066;2022-11-15T06:13:32;22.23;;;4.72;;
35558;SDS011;21661;50.794;-1.066;2022-11-15T06:15:59;32.85;;;3.90;;
35558;SDS011;21661;50.794;-1.066;2022-11-15T06:18:25;34.97;;;5.13;;
35558;SDS011;21661;50.794;-1.066;2022-11-15T06:20:50;23.17;;;3.63;;
35558;SDS011;21661;50.794;-1.066;2022-11-15T06:23:16;25.85;;;4.35;;
35558;SDS011;21661;50.794;-1.066;2022-11-15T06:25:42;32.08;;;4.43;;
35558;SDS011;21661;50.794;-1.066;2022-11-15T06:28:07;36.88;;;4.97;;
35558;SDS011;21661;50.794;-1.066;2022-11-15T06:30:33;31.15;;;4.13;;
35558;SDS011;21661;50.794;-1.066;2022-11-15T06:33:00;29.52;;;4.25;;
35558;SDS011;21661;50.794;-1.066;2022-11-15T06:35:29;18.35;;;3.05;;
35558;SDS011;21661;50.794;-1.066;2022-11-15T06:38:07;26.67;;;5.00;;
35558;SDS011;21661;50.794;-1.066;2022-11-15T06:40:35;36.30;;;4.93;;
35558;SDS011;21661;50.794;-1.066;2022-11-15T06:43:02;21.75;;;3.90;;
35558;SDS011;21661;50.794;-1.066;2022-11-15T06:45:28;28.23;;;4.05;;
35558;SDS011;21661;50.794;-1.066;2022-11-15T06:47:54;25.55;;;3.63;;
35558;SDS011;21661;50.794;-1.066;2022-11-15T06:50:19;31.52;;;3.30;;
35558;SDS011;21661;50.794;-1.066;2022-11-15T06:52:45;29.20;;;3.80;;
35558;SDS011;21661;50.794;-1.066;2022-11-15T06:55:11;34.20;;;4.90;;
35558;SDS011;21661;50.794;-1.066;2022-11-15T06:57:36;28.10;;;3.67;;
35558;SDS011;21661;50.794;-1.066;2022-11-15T07:00:11;36.97;;;4.57;;
35558;SDS011;21661;50.794;-1.066;2022-11-15T07:02:37;21.92;;;3.95;;
35558;SDS011;21661;50.794;-1.066;2022-11-15T07:05:02;35.00;;;4.40;;
35558;SDS011;21661;50.794;-1.066;2022-11-15T07:07:28;34.33;;;5.25;;
35558;SDS011;21661;50.794;-1.066;2022-11-15T07:09:53;29.50;;;4.65;;
35558;SDS011;21661;50.794;-1.066;2022-11-15T07:12:19;35.70;;;5.47;;
35558;SDS011;21661;50.794;-1.066;2022-11-15T07:14:45;24.75;;;4.00;;
35558;SDS011;21661;50.794;-1.066;2022-11-15T07:17:11;27.27;;;4.85;;
35558;SDS011;21661;50.794;-1.066;2022-11-15T07:19:36;34.72;;;4.40;;
35558;SDS011;21661;50.794;-1.066;2022-11-15T07:22:02;30.85;;;5.07;;
35558;SDS011;21661;50.794;-1.066;2022-11-15T07:24:27;27.90;;;5.70;;
35558;SDS011;21661;50.794;-1.066;2022-11-15T07:26:53;40.10;;;4.82;;
35558;SDS011;21661;50.794;-1.066;2022-11-15T07:29:18;36.20;;;4.95;;
35558;SDS011;21661;50.794;-1.066;2022-11-15T07:31:44;42.13;;;5.03;;
35558;SDS011;21661;50.794;-1.066;2022-11-15T07:34:09;30.65;;;5.43;;
35558;SDS011;21661;50.794;-1.066;2022-11-15T07:36:35;39.95;;;5.60;;
35558;SDS011;21661;50.794;-1.066;2022-11-15T07:39:01;49.55;;;6.30;;
35558;SDS011;21661;50.794;-1.066;2022-11-15T07:41:27;43.22;;;6.20;;
35558;SDS011;21661;50.794;-1.066;2022-11-15T07:43:52;50.50;;;6.47;;
35558;SDS011;21661;50.794;-1.066;2022-11-15T07:46:18;50.28;;;8.00;;
35558;SDS011;21661;50.794;-1.066;2022-11-15T07:48:43;51.63;;;5.53;;
35558;SDS011;21661;50.794;-1.066;2022-11-15T07:51:12;50.13;;;6.32;;
35558;SDS011;21661;50.794;-1.066;2022-11-15T07:53:39;47.13;;;6.45;;
35558;SDS011;21661;50.794;-1.066;2022-11-15T07:56:08;39.85;;;5.30;;
35558;SDS011;21661;50.794;-1.066;2022-11-15T07:58:34;42.05;;;6.50;;
35558;SDS011;21661;50.794;-1.066;2022-11-15T08:01:04;42.83;;;5.75;;
35558;SDS011;21661;50.794;-1.066;2022-11-15T08:03:30;48.63;;;7.15;;
35558;SDS011;21661;50.794;-1.066;2022-11-15T08:05:56;46.30;;;5.35;;
35558;SDS011;21661;50.794;-1.066;2022-11-15T08:08:22;45.50;;;6.95;;
35558;SDS011;21661;50.794;-1.066;2022-11-15T08:10:47;44.45;;;8.00;;
35558;SDS011;21661;50.794;-1.066;2022-11-15T08:13:13;47.80;;;7.38;;
35558;SDS011;21661;50.794;-1.066;2022-11-15T08:15:39;45.42;;;7.50;;
35558;SDS011;21661;50.794;-1.066;2022-11-15T08:18:06;43.97;;;6.03;;
35558;SDS011;21661;50.794;-1.066;2022-11-15T08:20:36;54.75;;;7.13;;
35558;SDS011;21661;50.794;-1.066;2022-11-15T08:23:03;51.13;;;6.15;;
35558;SDS011;21661;50.794;-1.066;2022-11-15T08:25:30;33.78;;;4.93;;
35558;SDS011;21661;50.794;-1.066;2022-11-15T08:27:57;40.75;;;6.65;;
35558;SDS011;21661;50.794;-1.066;2022-11-15T08:30:25;58.15;;;6.72;;
35558;SDS011;21661;50.794;-1.066;2022-11-15T08:32:52;47.60;;;5.45;;
35558;SDS011;21661;50.794;-1.066;2022-11-15T08:35:18;50.92;;;8.02;;
35558;SDS011;21661;50.794;-1.066;2022-11-15T08:37:45;54.30;;;6.15;;
35558;SDS011;21661;50.794;-1.066;2022-11-15T08:40:11;55.00;;;7.57;;
35558;SDS011;21661;50.794;-1.066;2022-11-15T08:42:36;61.42;;;7.43;;
35558;SDS011;21661;50.794;-1.066;2022-11-15T08:45:02;51.10;;;7.20;;
35558;SDS011;21661;50.794;-1.066;2022-11-15T08:47:28;42.33;;;6.45;;
35558;SDS011;21661;50.794;-1.066;2022-11-15T08:49:54;44.90;;;6.90;;
35558;SDS011;21661;50.794;-1.066;2022-11-15T08:52:20;61.45;;;7.55;;
35558;SDS011;21661;50.794;-1.066;2022-11-15T08:54:45;37.47;;;6.43;;
35558;SDS011;21661;50.794;-1.066;2022-11-15T08:57:11;50.72;;;7.38;;
35558;SDS011;21661;50.794;-1.066;2022-11-15T08:59:37;48.22;;;7.22;;
35558;SDS011;21661;50.794;-1.066;2022-11-15T09:02:03;56.03;;;6.85;;
35558;SDS011;21661;50.794;-1.066;2022-11-15T09:04:29;37.58;;;5.25;;
35558;SDS011;21661;50.794;-1.066;2022-11-15T09:06:55;41.30;;;5.38;;
35558;SDS011;21661;50.794;-1.066;2022-11-15T09:09:21;54.55;;;7.03;;
35558;SDS011;21661;50.794;-1.066;2022-11-15T09:11:46;49.20;;;6.63;;
35558;SDS011;21661;50.794;-1.066;2022-11-15T09:14:12;40.55;;;5.53;;
35558;SDS011;21661;50.794;-1.066;2022-11-15T09:16:38;48.08;;;5.80;;
35558;SDS011;21661;50.794;-1.066;2022-11-15T09:19:04;45.97;;;6.50;;
35558;SDS011;21661;50.794;-1.066;2022-11-15T09:21:30;41.60;;;7.10;;
35558;SDS011;21661;50.794;-1.066;2022-11-15T09:23:56;38.97;;;5.95;;
35558;SDS011;21661;50.794;-1.066;2022-11-15T09:26:22;64.03;;;8.70;;
35558;SDS011;21661;50.794;-1.066;2022-11-15T09:28:48;59.72;;;9.07;;
35558;SDS011;21661;50.794;-1.066;2022-11-15T09:31:14;40.28;;;5.60;;
35558;SDS011;21661;50.794;-1.066;2022-11-15T09:33:40;46.28;;;5.82;;
35558;SDS011;21661;50.794;-1.066;2022-11-15T09:36:08;37.70;;;8.05;;
35558;SDS011;21661;50.794;-1.066;2022-11-15T09:38:35;46.63;;;6.57;;
35558;SDS011;21661;50.794;-1.066;2022-11-15T09:48:56;37.65;;;5.10;;
35558;SDS011;21661;50.794;-1.066;2022-11-15T09:51:26;50.33;;;6.38;;
35558;SDS011;21661;50.794;-1.066;2022-11-15T09:54:03;44.58;;;6.63;;
35558;SDS011;21661;50.794;-1.066;2022-11-15T09:56:30;37.95;;;5.10;;
35558;SDS011;21661;50.794;-1.066;2022-11-15T10:04:23;31.05;;;4.45;;
35558;SDS011;21661;50.794;-1.066;2022-11-15T10:06:55;39.78;;;5.20;;
35558;SDS011;21661;50.794;-1.066;2022-11-15T10:09:31;37.97;;;5.30;;
35558;SDS011;21661;50.794;-1.066;2022-11-15T10:12:28;43.83;;;6.60;;
35558;SDS011;21661;50.794;-1.066;2022-11-15T10:15:05;45.70;;;7.13;;
35558;SDS011;21661;50.794;-1.066;2022-11-15T10:20:30;41.05;;;5.80;;
35558;SDS011;21661;50.794;-1.066;2022-11-15T10:23:06;48.17;;;7.40;;
35558;SDS011;21661;50.794;-1.066;2022-11-15T10:25:36;55.47;;;7.97;;
35558;SDS011;21661;50.794;-1.066;2022-11-15T10:28:11;40.75;;;5.90;;
35558;SDS011;21661;50.794;-1.066;2022-11-15T10:30:52;46.78;;;6.47;;
35558;SDS011;21661;50.794;-1.066;2022-11-15T10:33:22;45.88;;;6.50;;
35558;SDS011;21661;50.794;-1.066;2022-11-15T10:35:49;58.47;;;9.02;;
35558;SDS011;21661;50.794;-1.066;2022-11-15T10:38:51;39.53;;;6.05;;
35558;SDS011;21661;50.794;-1.066;2022-11-15T10:47:32;33.13;;;5.25;;
35558;SDS011;21661;50.794;-1.066;2022-11-15T10:50:03;32.85;;;5.43;;
35558;SDS011;21661;50.794;-1.066;2022-11-15T10:52:33;35.70;;;4.80;;
35558;SDS011;21661;50.794;-1.066;2022-11-15T10:55:02;24.35;;;4.28;;
35558;SDS011;21661;50.794;-1.066;2022-11-15T10:57:51;27.75;;;4.45;;
35558;SDS011;21661;50.794;-1.066;2022-11-15T11:03:04;38.80;;;5.00;;
35558;SDS011;21661;50.794;-1.066;2022-11-15T11:05:45;23.98;;;4.32;;
35558;SDS011;21661;50.794;-1.066;2022-11-15T11:10:36;31.48;;;4.35;;
35558;SDS011;21661;50.794;-1.066;2022-11-15T11:13:12;36.42;;;5.60;;
35558;SDS011;21661;50.794;-1.066;2022-11-15T11:15:39;26.10;;;4.35;;
35558;SDS011;21661;50.794;-1.066;2022-11-15T11:18:10;31.63;;;5.15;;
35558;SDS011;21661;50.794;-1.066;2022-11-15T11:20:47;25.70;;;4.38;;
35558;SDS011;21661;50.794;-1.066;2022-11-15T11:23:30;25.88;;;4.22;;
35558;SDS011;21661;50.794;-1.066;2022-11-15T11:26:13;22.63;;;3.47;;
35558;SDS011;21661;50.794;-1.066;2022-11-15T11:33:46;32.65;;;4.72;;
35558;SDS011;21661;50.794;-1.066;2022-11-15T11:41:27;14.80;;;1.65;;
35558;SDS011;21661;50.794;-1.066;2022-11-15T11:47:11;14.55;;;2.63;;
35558;SDS011;21661;50.794;-1.066;2022-11-15T11:52:17;14.18;;;2.80;;
35558;SDS011;21661;50.794;-1.066;2022-11-15T11:54:59;16.17;;;2.42;;
35558;SDS011;21661;50.794;-1.066;2022-11-15T11:57:35;8.88;;;1.65;;
35558;SDS011;21661;50.794;-1.066;2022-11-15T12:00:24;13.32;;;1.83;;
35558;SDS011;21661;50.794;-1.066;2022-11-15T12:05:44;5.45;;;1.20;;
35558;SDS011;21661;50.794;-1.066;2022-11-15T12:08:35;6.25;;;0.82;;
35558;SDS011;21661;50.794;-1.066;2022-11-15T12:11:17;4.88;;;0.82;;
35558;SDS011;21661;50.794;-1.066;2022-11-15T12:13:50;7.93;;;0.95;;
35558;SDS011;21661;50.794;-1.066;2022-11-15T12:16:26;12.00;;;1.65;;
35558;SDS011;21661;50.794;-1.066;2022-11-15T12:18:53;8.80;;;1.20;;
35558;SDS011;21661;50.794;-1.066;2022-11-15T12:21:32;12.35;;;1.42;;
35558;SDS011;21661;50.794;-1.066;2022-11-15T12:24:27;9.15;;;1.45;;
35558;SDS011;21661;50.794;-1.066;2022-11-15T12:27:13;6.70;;;1.15;;
35558;SDS011;21661;50.794;-1.066;2022-11-15T12:29:48;7.20;;;1.88;;
35558;SDS011;21661;50.794;-1.066;2022-11-15T12:32:28;8.43;;;1.23;;
35558;SDS011;21661;50.794;-1.066;2022-11-15T12:34:57;6.20;;;1.30;;
35558;SDS011;21661;50.794;-1.066;2022-11-15T12:44:56;7.57;;;1.67;;
35558;SDS011;21661;50.794;-1.066;2022-11-15T12:47:24;11.73;;;1.90;;
35558;SDS011;21661;50.794;-1.066;2022-11-15T12:49:51;8.55;;;1.60;;
35558;SDS011;21661;50.794;-1.066;2022-11-15T12:52:17;16.60;;;2.33;;
35558;SDS011;21661;50.794;-1.066;2022-11-15T12:54:54;27.10;;;2.08;;
35558;SDS011;21661;50.794;-1.066;2022-11-15T12:57:25;8.73;;;2.17;;
35558;SDS011;21661;50.794;-1.066;2022-11-15T13:00:02;9.40;;;1.77;;
35558;SDS011;21661;50.794;-1.066;2022-11-15T13:02:55;11.82;;;2.03;;
35558;SDS011;21661;50.794;-1.066;2022-11-15T13:08:07;11.90;;;1.75;;
35558;SDS011;21661;50.794;-1.066;2022-11-15T13:10:33;12.95;;;1.90;;
35558;SDS011;21661;50.794;-1.066;2022-11-15T13:13:00;12.48;;;2.10;;
35558;SDS011;21661;50.794;-1.066;2022-11-15T13:15:32;15.30;;;1.70;;
35558;SDS011;21661;50.794;-1.066;2022-11-15T13:20:49;10.68;;;1.88;;
35558;SDS011;21661;50.794;-1.066;2022-11-15T13:23:15;14.18;;;2.22;;
35558;SDS011;21661;50.794;-1.066;2022-11-15T13:28:33;9.98;;;1.48;;
35558;SDS011;21661;50.794;-1.066;2022-11-15T13:33:44;10.40;;;2.00;;
35558;SDS011;21661;50.794;-1.066;2022-11-15T13:36:15;7.63;;;2.08;;
35558;SDS011;21661;50.794;-1.066;2022-11-15T13:38:44;10.43;;;1.67;;
35558;SDS011;21661;50.794;-1.066;2022-11-15T13:41:19;11.80;;;1.80;;
35558;SDS011;21661;50.794;-1.066;2022-11-15T13:43:47;8.45;;;1.80;;
35558;SDS011;21661;50.794;-1.066;2022-11-15T13:48:53;6.60;;;1.38;;
35558;SDS011;21661;50.794;-1.066;2022-11-15T13:54:13;13.73;;;1.65;;
35558;SDS011;21661;50.794;-1.066;2022-11-15T13:57:05;14.05;;;1.50;;
35558;SDS011;21661;50.794;-1.066;2022-11-15T13:59:43;12.70;;;1.63;;
35558;SDS011;21661;50.794;-1.066;2022-11-15T14:02:17;12.50;;;2.08;;
35558;SDS011;21661;50.794;-1.066;2022-11-15T14:04:51;13.57;;;1.83;;
35558;SDS011;21661;50.794;-1.066;2022-11-15T14:07:21;12.98;;;2.08;;
35558;SDS011;21661;50.794;-1.066;2022-11-15T14:09:49;12.55;;;2.95;;
35558;SDS011;21661;50.794;-1.066;2022-11-15T14:14:57;10.98;;;1.92;;
35558;SDS011;21661;50.794;-1.066;2022-11-15T14:19:53;7.20;;;1.50;;
35558;SDS011;21661;50.794;-1.066;2022-11-15T14:22:23;9.00;;;1.42;;
35558;SDS011;21661;50.794;-1.066;2022-11-15T14:27:37;10.60;;;1.40;;
35558;SDS011;21661;50.794;-1.066;2022-11-15T14:30:03;12.05;;;1.70;;
35558;SDS011;21661;50.794;-1.066;2022-11-15T14:32:43;7.03;;;1.00;;
35558;SDS011;21661;50.794;-1.066;2022-11-15T14:35:15;6.63;;;1.45;;
35558;SDS011;21661;50.794;-1.066;2022-11-15T14:37:43;4.63;;;0.65;;
35558;SDS011;21661;50.794;-1.066;2022-11-15T14:40:11;6.18;;;0.85;;
35558;SDS011;21661;50.794;-1.066;2022-11-15T14:42:42;7.78;;;1.67;;
35558;SDS011;21661;50.794;-1.066;2022-11-15T14:45:14;6.63;;;1.33;;
35558;SDS011;21661;50.794;-1.066;2022-11-15T14:47:44;4.35;;;0.80;;
35558;SDS011;21661;50.794;-1.066;2022-11-15T14:50:19;6.43;;;1.02;;
35558;SDS011;21661;50.794;-1.066;2022-11-15T14:52:46;9.45;;;1.88;;
35558;SDS011;21661;50.794;-1.066;2022-11-15T14:55:23;6.60;;;1.20;;
35558;SDS011;21661;50.794;-1.066;2022-11-15T14:57:53;5.38;;;0.88;;
35558;SDS011;21661;50.794;-1.066;2022-11-15T15:00:20;6.22;;;1.23;;
35558;SDS011;21661;50.794;-1.066;2022-11-15T15:02:46;15.13;;;2.92;;
35558;SDS011;21661;50.794;-1.066;2022-11-15T15:07:43;9.55;;;2.35;;
35558;SDS011;21661;50.794;-1.066;2022-11-15T15:10:09;11.15;;;2.17;;
35558;SDS011;21661;50.794;-1.066;2022-11-15T15:12:37;9.63;;;2.28;;
35558;SDS011;21661;50.794;-1.066;2022-11-15T15:15:02;8.95;;;1.90;;
35558;SDS011;21661;50.794;-1.066;2022-11-15T15:17:28;9.23;;;1.67;;
35558;SDS011;21661;50.794;-1.066;2022-11-15T15:19:54;14.63;;;2.47;;
35558;SDS011;21661;50.794;-1.066;2022-11-15T15:22:19;19.10;;;4.05;;
35558;SDS011;21661;50.794;-1.066;2022-11-15T15:24:50;15.35;;;3.00;;
35558;SDS011;21661;50.794;-1.066;2022-11-15T15:27:15;15.15;;;3.00;;
35558;SDS011;21661;50.794;-1.066;2022-11-15T15:29:41;18.63;;;3.45;;
35558;SDS011;21661;50.794;-1.066;2022-11-15T15:32:07;13.98;;;2.95;;
35558;SDS011;21661;50.794;-1.066;2022-11-15T15:34:34;13.77;;;2.15;;
35558;SDS011;21661;50.794;-1.066;2022-11-15T15:37:11;14.82;;;2.30;;
35558;SDS011;21661;50.794;-1.066;2022-11-15T15:42:17;16.80;;;3.17;;
35558;SDS011;21661;50.794;-1.066;2022-11-15T15:44:44;14.00;;;2.97;;
35558;SDS011;21661;50.794;-1.066;2022-11-15T15:47:11;15.48;;;2.95;;
35558;SDS011;21661;50.794;-1.066;2022-11-15T15:52:06;17.42;;;3.00;;
35558;SDS011;21661;50.794;-1.066;2022-11-15T15:54:32;15.55;;;2.40;;
35558;SDS011;21661;50.794;-1.066;2022-11-15T15:56:58;16.92;;;1.95;;
35558;SDS011;21661;50.794;-1.066;2022-11-15T15:59:23;10.57;;;1.60;;
35558;SDS011;21661;50.794;-1.066;2022-11-15T16:01:49;8.27;;;1.05;;
35558;SDS011;21661;50.794;-1.066;2022-11-15T16:04:14;10.82;;;1.17;;
35558;SDS011;21661;50.794;-1.066;2022-11-15T16:06:40;13.77;;;1.90;;
35558;SDS011;21661;50.794;-1.066;2022-11-15T16:09:12;10.40;;;1.42;;
35558;SDS011;21661;50.794;-1.066;2022-11-15T16:11:39;9.38;;;1.50;;
35558;SDS011;21661;50.794;-1.066;2022-11-15T16:14:04;10.05;;;1.60;;
35558;SDS011;21661;50.794;-1.066;2022-11-15T16:16:30;13.55;;;2.13;;
35558;SDS011;21661;50.794;-1.066;2022-11-15T16:18:56;11.27;;;1.85;;
35558;SDS011;21661;50.794;-1.066;2022-11-15T16:21:21;9.30;;;1.50;;
35558;SDS011;21661;50.794;-1.066;2022-11-15T16:23:47;9.02;;;1.40;;
35558;SDS011;21661;50.794;-1.066;2022-11-15T16:26:24;14.70;;;2.17;;
35558;SDS011;21661;50.794;-1.066;2022-11-15T16:28:51;10.50;;;1.73;;
35558;SDS011;21661;50.794;-1.066;2022-11-15T16:31:17;9.68;;;1.42;;
35558;SDS011;21661;50.794;-1.066;2022-11-15T16:33:46;11.52;;;1.92;;
35558;SDS011;21661;50.794;-1.066;2022-11-15T16:36:19;7.88;;;1.67;;
35558;SDS011;21661;50.794;-1.066;2022-11-15T16:38:45;13.68;;;3.10;;